createdAt,value
2018-07-06T00:03:41.587Z,95641.00
2018-07-06T00:09:28.126Z,95642.00
2018-07-06T00:15:14.387Z,95633.00
2018-07-06T00:21:00.776Z,95633.00
2018-07-06T00:26:47.036Z,95642.00
2018-07-06T00:32:33.105Z,95644.00
2018-07-06T00:38:19.261Z,95648.00
2018-07-06T00:44:05.575Z,95651.00
2018-07-06T00:49:51.791Z,95649.00
2018-07-06T00:55:38.187Z,95654.00
2018-07-06T01:01:24.401Z,95657.00
2018-07-06T01:07:10.484Z,95652.00
2018-07-06T01:13:02.755Z,95653.00
2018-07-06T01:18:48.908Z,95652.00
2018-07-06T01:24:35.169Z,95653.00
2018-07-06T01:30:21.454Z,95652.00
2018-07-06T01:36:08.064Z,95647.00
2018-07-06T01:41:54.635Z,95633.00
2018-07-06T01:47:40.809Z,95647.00
2018-07-06T01:53:27.066Z,95642.00
2018-07-06T01:59:13.402Z,95638.00
2018-07-06T02:04:53.646Z,95637.00
2018-07-06T02:10:40.086Z,95631.00
2018-07-06T02:16:26.279Z,95632.00
2018-07-06T02:22:12.620Z,95629.00
2018-07-06T02:27:58.860Z,95620.00
2018-07-06T02:33:45.244Z,95617.00
2018-07-06T02:39:25.671Z,95621.00
2018-07-06T02:45:11.921Z,95625.00
2018-07-06T02:50:58.264Z,95623.00
2018-07-06T02:56:44.562Z,95628.00
2018-07-06T03:02:30.923Z,95633.00
2018-07-06T03:08:11.408Z,95635.00
2018-07-06T03:13:57.582Z,95627.00
2018-07-06T03:19:43.964Z,95637.00
2018-07-06T03:25:30.295Z,95630.00
2018-07-06T03:31:16.469Z,95629.00
2018-07-06T03:37:03.006Z,95626.00
2018-07-06T03:42:49.233Z,95627.00
2018-07-06T03:48:35.690Z,95635.00
2018-07-06T03:54:22.056Z,95629.00
2018-07-06T04:00:08.624Z,95630.00
2018-07-06T04:05:54.811Z,95640.00
2018-07-06T04:11:41.005Z,95636.00
2018-07-06T04:17:27.283Z,95631.00
2018-07-06T04:23:13.497Z,95637.00
2018-07-06T04:28:59.673Z,95643.00
2018-07-06T04:34:45.750Z,95645.00
2018-07-06T04:40:32.090Z,95644.00
2018-07-06T04:46:12.731Z,95651.00
2018-07-06T04:51:59.083Z,95650.00
2018-07-06T04:57:45.329Z,95653.00
2018-07-06T05:03:31.492Z,95648.00
2018-07-06T05:09:17.628Z,95645.00
2018-07-06T05:15:03.821Z,95646.00
2018-07-06T05:20:49.935Z,95651.00
2018-07-06T05:26:36.293Z,95653.00
2018-07-06T05:32:22.512Z,95653.00
2018-07-06T05:38:08.762Z,95666.00
2018-07-06T05:43:54.993Z,95664.00
2018-07-06T05:49:41.195Z,95673.00
2018-07-06T05:55:21.186Z,95667.00
2018-07-06T06:01:07.325Z,95662.00
2018-07-06T06:06:53.438Z,95673.00
2018-07-06T06:12:22.832Z,95663.00
2018-07-06T06:17:52.164Z,95672.00
2018-07-06T06:23:21.393Z,95679.00
2018-07-06T06:28:50.602Z,95676.00
2018-07-06T06:34:19.905Z,95677.00
2018-07-06T06:39:49.229Z,95686.00
2018-07-06T06:45:18.437Z,95684.00
2018-07-06T06:50:47.788Z,95678.00
2018-07-06T06:56:16.992Z,95685.00
2018-07-06T07:01:46.341Z,95683.00
2018-07-06T07:07:15.704Z,95683.00
2018-07-06T07:12:44.947Z,95688.00
2018-07-06T07:18:14.201Z,95683.00
2018-07-06T07:23:43.581Z,95695.00
2018-07-06T07:29:12.853Z,95690.00
2018-07-06T07:34:42.074Z,95697.00
2018-07-06T07:40:11.281Z,95701.00
2018-07-06T07:45:40.581Z,95692.00
2018-07-06T07:52:01.990Z,95695.00
2018-07-06T07:57:31.210Z,95698.00
2018-07-06T08:03:00.436Z,95695.00
2018-07-06T08:08:29.677Z,95700.00
2018-07-06T08:14:04.908Z,95708.00
2018-07-06T08:19:28.231Z,95717.00
2018-07-06T08:24:57.439Z,95718.00
2018-07-06T08:30:26.615Z,95725.00
2018-07-06T08:36:16.754Z,95721.00
2018-07-06T08:41:46.019Z,95726.00
2018-07-06T08:47:15.291Z,95723.00
2018-07-06T08:52:45.688Z,95728.00
2018-07-06T08:58:15.100Z,95742.00
2018-07-06T09:03:44.387Z,95731.00
2018-07-06T09:09:13.651Z,95726.00
2018-07-06T09:14:42.954Z,95735.00
2018-07-06T09:20:12.434Z,95738.00
2018-07-06T09:25:41.545Z,95734.00
2018-07-06T09:31:10.819Z,95743.00
2018-07-06T09:36:40.970Z,95743.00
2018-07-06T09:42:10.148Z,95740.00
2018-07-06T09:47:39.394Z,95744.00
2018-07-06T09:53:08.615Z,95750.00
2018-07-06T09:58:37.808Z,95753.00
2018-07-06T10:04:07.092Z,95754.00
2018-07-06T10:09:36.168Z,95754.00
2018-07-06T10:15:05.443Z,95754.00
2018-07-06T10:20:34.643Z,95761.00
2018-07-06T10:26:03.976Z,95767.00
2018-07-06T10:32:45.767Z,95765.00
2018-07-06T10:38:14.982Z,95772.00
2018-07-06T10:43:44.263Z,95778.00
2018-07-06T10:49:13.530Z,95778.00
2018-07-06T10:54:43.392Z,95778.00
2018-07-06T11:00:12.794Z,95793.00
2018-07-06T11:05:41.982Z,95794.00
2018-07-06T11:11:11.250Z,95783.00
2018-07-06T11:16:40.556Z,95795.00
2018-07-06T11:22:09.807Z,95789.00
2018-07-06T11:27:39.056Z,95788.00
2018-07-06T11:33:08.263Z,95792.00
2018-07-06T11:38:37.523Z,95795.00
2018-07-06T11:44:06.747Z,95823.00
2018-07-06T11:49:36.084Z,95811.00
2018-07-06T11:55:05.344Z,95815.00
2018-07-06T12:00:34.605Z,95804.00
2018-07-06T12:06:03.849Z,95803.00
2018-07-06T12:11:33.517Z,95810.00
2018-07-06T12:17:02.753Z,95809.00
2018-07-06T12:22:31.970Z,95811.00
2018-07-06T12:28:01.341Z,95814.00
2018-07-06T12:33:30.583Z,95815.00
2018-07-06T12:38:59.806Z,95814.00
2018-07-06T12:44:29.097Z,95827.00
2018-07-06T12:49:58.408Z,95834.00
2018-07-06T12:55:27.652Z,95833.00
2018-07-06T13:00:56.880Z,95834.00
2018-07-06T13:06:26.248Z,95834.00
2018-07-06T13:11:55.449Z,95833.00
2018-07-06T13:17:24.683Z,95846.00
2018-07-06T13:22:53.905Z,95841.00
2018-07-06T13:28:23.159Z,95839.00
2018-07-06T13:33:52.513Z,95852.00
2018-07-06T13:39:21.717Z,95861.00
2018-07-06T13:44:51.030Z,95867.00
2018-07-06T13:50:20.276Z,95863.00
2018-07-06T13:55:49.593Z,95868.00
2018-07-06T14:01:18.832Z,95876.00
2018-07-06T14:06:48.196Z,95877.00
2018-07-06T14:12:18.805Z,95871.00
2018-07-06T14:17:47.996Z,95874.00
2018-07-06T14:23:17.268Z,95879.00
2018-07-06T14:28:46.613Z,95889.00
2018-07-06T14:34:15.832Z,95889.00
2018-07-06T14:39:45.134Z,95886.00
2018-07-06T14:45:14.443Z,95881.00
2018-07-06T14:50:43.737Z,95889.00
2018-07-06T14:56:12.954Z,95888.00
2018-07-06T15:01:42.286Z,95890.00
2018-07-06T15:07:11.546Z,95894.00
2018-07-06T15:12:40.831Z,95880.00
2018-07-06T15:18:10.136Z,95888.00
2018-07-06T15:23:39.442Z,95888.00
2018-07-06T15:29:08.700Z,95896.00
2018-07-06T15:34:37.945Z,95896.00
2018-07-06T15:40:07.234Z,95896.00
2018-07-06T15:45:38.240Z,95896.00
2018-07-06T15:51:07.575Z,95900.00
2018-07-06T15:56:36.867Z,95908.00
2018-07-06T16:02:06.076Z,95916.00
2018-07-06T16:07:35.477Z,95916.00
2018-07-06T16:13:04.963Z,95923.00
2018-07-06T16:18:34.396Z,95922.00
2018-07-06T16:24:03.654Z,95917.00
2018-07-06T16:29:32.988Z,95930.00
2018-07-06T16:35:02.279Z,95930.00
2018-07-06T16:40:31.535Z,95930.00
2018-07-06T16:46:00.773Z,95940.00
2018-07-06T16:51:30.014Z,95940.00
2018-07-06T16:56:59.291Z,95944.00
2018-07-06T17:02:29.626Z,95939.00
2018-07-06T17:07:58.947Z,95941.00
2018-07-06T17:13:28.290Z,95954.00
2018-07-06T17:18:57.531Z,95947.00
2018-07-06T17:24:26.952Z,95948.00
2018-07-06T17:29:56.368Z,95946.00
2018-07-06T17:35:25.823Z,95943.00
2018-07-06T17:40:55.099Z,95950.00
2018-07-06T17:46:24.804Z,95943.00
2018-07-06T17:51:54.297Z,95950.00
2018-07-06T17:57:23.578Z,95959.00
2018-07-06T18:02:53.483Z,95958.00
2018-07-06T18:08:23.510Z,95952.00
2018-07-06T18:13:52.739Z,95963.00
2018-07-06T18:19:22.139Z,95956.00
2018-07-06T18:24:51.520Z,95960.00
2018-07-06T18:30:21.200Z,95961.00
2018-07-06T18:35:50.596Z,95965.00
2018-07-06T18:41:19.947Z,95972.00
2018-07-06T18:46:49.288Z,95977.00
2018-07-06T18:52:18.733Z,95975.00
2018-07-06T18:57:48.103Z,95974.00
2018-07-06T19:03:18.399Z,95984.00
2018-07-06T19:08:48.030Z,95984.00
2018-07-06T19:14:17.909Z,95997.00
2018-07-06T19:19:58.836Z,95990.00
2018-07-06T19:25:29.491Z,95990.00
2018-07-06T19:31:02.175Z,96002.00
2018-07-06T19:36:31.757Z,95998.00
2018-07-06T19:42:00.987Z,96010.00
2018-07-06T19:47:30.343Z,96017.00
2018-07-06T19:52:59.693Z,96010.00
2018-07-06T19:58:29.001Z,96027.00
2018-07-06T20:03:58.348Z,96031.00
2018-07-06T20:09:27.696Z,96035.00
2018-07-06T20:14:57.029Z,96033.00
2018-07-06T20:20:26.667Z,96044.00
2018-07-06T20:25:55.961Z,96063.00
2018-07-06T20:31:25.019Z,96071.00
2018-07-06T20:36:54.678Z,96068.00
2018-07-06T20:42:24.164Z,96073.00
2018-07-06T20:47:53.495Z,96089.00
2018-07-06T20:53:23.035Z,96110.00
2018-07-06T20:58:52.645Z,96114.00
2018-07-06T21:04:21.643Z,96112.00
2018-07-06T21:09:53.010Z,96111.00
2018-07-06T21:15:22.714Z,96117.00
2018-07-06T21:20:52.968Z,96117.00
2018-07-06T21:26:22.680Z,96123.00
2018-07-06T21:31:52.070Z,96124.00
2018-07-06T21:37:21.441Z,96132.00
2018-07-06T21:42:50.781Z,96130.00
2018-07-06T21:48:20.111Z,96139.00
2018-07-06T21:53:49.325Z,96137.00
2018-07-06T21:59:18.632Z,96128.00
2018-07-06T22:04:48.092Z,96140.00
2018-07-06T22:10:17.487Z,96131.00
2018-07-06T22:15:47.726Z,96133.00
2018-07-06T22:21:16.971Z,96137.00
2018-07-06T22:26:46.297Z,96137.00
2018-07-06T22:32:15.293Z,96137.00
2018-07-06T22:37:44.825Z,96141.00
2018-07-06T22:43:14.238Z,96148.00
2018-07-06T22:48:43.354Z,96150.00
2018-07-06T22:54:12.543Z,96143.00
2018-07-06T22:59:41.800Z,96149.00
2018-07-06T23:05:15.376Z,96143.00
2018-07-06T23:10:44.671Z,96137.00
2018-07-06T23:16:13.764Z,96147.00
2018-07-06T23:21:42.957Z,96136.00
2018-07-06T23:27:12.290Z,96147.00
2018-07-06T23:32:41.619Z,96147.00
2018-07-06T23:38:10.852Z,96143.00
2018-07-06T23:43:40.112Z,96140.00
2018-07-06T23:49:09.408Z,96141.00
2018-07-06T23:54:38.846Z,96145.00
